createdAt,value
2023-06-10T00:02:02.750Z,51.13
2023-06-10T00:04:29.387Z,51.06
2023-06-10T00:06:56.211Z,51.04
2023-06-10T00:09:23.703Z,51.06
2023-06-10T00:11:50.551Z,50.75
2023-06-10T00:14:17.153Z,50.81
2023-06-10T00:16:46.076Z,50.63
2023-06-10T00:19:15.406Z,51.01
2023-06-10T00:21:42.094Z,51.15
2023-06-10T00:24:15.620Z,51.55
2023-06-10T00:26:42.546Z,50.75
2023-06-10T00:29:09.470Z,50.76
2023-06-10T00:31:38.599Z,50.85
2023-06-10T00:34:08.288Z,50.38
2023-06-10T00:36:35.152Z,50.42
2023-06-10T00:39:01.612Z,50.48
2023-06-10T00:41:28.229Z,50.30
2023-06-10T00:43:54.742Z,50.33
2023-06-10T00:46:24.765Z,50.05
2023-06-10T00:48:51.604Z,49.86
2023-06-10T00:51:19.478Z,50.13
2023-06-10T00:53:46.652Z,50.46
2023-06-10T00:56:14.390Z,49.61
2023-06-10T00:58:41.402Z,49.57
2023-06-10T01:01:07.952Z,49.77
2023-06-10T01:03:38.042Z,49.27
2023-06-10T01:06:15.751Z,49.49
2023-06-10T01:08:52.489Z,49.03
2023-06-10T01:11:24.371Z,48.98
2023-06-10T01:13:55.951Z,49.21
2023-06-10T01:16:24.563Z,49.17
2023-06-10T01:18:51.455Z,49.28
2023-06-10T01:21:22.415Z,48.90
2023-06-10T01:23:49.101Z,49.19
2023-06-10T01:26:16.868Z,49.28
2023-06-10T01:28:58.380Z,49.43
2023-06-10T01:31:38.361Z,49.10
2023-06-10T01:34:09.950Z,49.78
2023-06-10T01:36:37.675Z,49.44
2023-06-10T01:39:05.846Z,50.06
2023-06-10T01:41:33.671Z,49.97
2023-06-10T01:44:00.225Z,50.23
2023-06-10T01:46:26.782Z,50.72
2023-06-10T01:48:53.445Z,49.87
2023-06-10T01:51:19.933Z,50.49
2023-06-10T01:53:46.455Z,50.59
2023-06-10T01:56:17.787Z,50.54
2023-06-10T01:58:45.108Z,50.56
2023-06-10T02:01:11.896Z,51.83
2023-06-10T02:03:38.738Z,51.08
2023-06-10T02:06:05.592Z,51.84
2023-06-10T02:08:32.184Z,52.32
2023-06-10T02:11:00.758Z,52.10
2023-06-10T02:13:29.807Z,52.41
2023-06-10T02:15:56.623Z,52.12
2023-06-10T02:18:23.205Z,52.38
2023-06-10T02:20:50.048Z,54.15
2023-06-10T02:23:16.610Z,53.20
2023-06-10T02:25:43.198Z,54.04
2023-06-10T02:28:09.762Z,54.15
2023-06-10T02:30:36.624Z,54.53
2023-06-10T02:33:04.555Z,54.53
2023-06-10T02:35:31.117Z,55.51
2023-06-10T02:37:57.677Z,55.67
2023-06-10T02:40:24.153Z,55.64
2023-06-10T02:42:50.836Z,55.72
2023-06-10T02:45:17.843Z,56.07
2023-06-10T02:47:44.567Z,55.89
2023-06-10T02:50:12.887Z,56.00
2023-06-10T02:52:49.966Z,55.96
2023-06-10T02:55:16.875Z,56.17
2023-06-10T02:57:49.366Z,56.73
2023-06-10T03:00:17.701Z,56.42
2023-06-10T03:02:46.838Z,56.68
2023-06-10T03:05:14.164Z,57.51
2023-06-10T03:07:44.142Z,57.24
2023-06-10T03:10:10.912Z,57.15
2023-06-10T03:12:39.747Z,56.86
2023-06-10T03:15:07.788Z,57.16
2023-06-10T03:17:35.246Z,57.65
2023-06-10T03:20:02.829Z,57.47
2023-06-10T03:22:29.446Z,57.52
2023-06-10T03:25:04.336Z,57.85
2023-06-10T03:27:32.416Z,57.88
2023-06-10T03:30:01.458Z,57.67
2023-06-10T03:32:28.779Z,57.95
2023-06-10T03:34:58.352Z,57.88
2023-06-10T03:37:27.571Z,57.84
2023-06-10T03:39:54.656Z,58.33
2023-06-10T03:42:21.256Z,58.46
2023-06-10T03:44:48.182Z,58.69
2023-06-10T03:47:14.995Z,58.62
2023-06-10T03:49:41.601Z,58.76
2023-06-10T03:52:08.375Z,59.22
2023-06-10T03:54:37.781Z,58.50
2023-06-10T03:57:04.662Z,58.69
2023-06-10T03:59:31.304Z,59.04
2023-06-10T04:01:57.895Z,59.13
2023-06-10T04:04:24.778Z,58.97
2023-06-10T04:06:51.733Z,59.19
2023-06-10T04:09:18.422Z,59.45
2023-06-10T04:11:45.018Z,59.75
2023-06-10T04:14:11.721Z,59.73
2023-06-10T04:16:39.807Z,59.13
2023-06-10T04:19:06.798Z,59.66
2023-06-10T04:21:34.040Z,59.92
2023-06-10T04:24:00.738Z,59.18
2023-06-10T04:26:28.291Z,58.89
2023-06-10T04:28:55.083Z,59.09
2023-06-10T04:31:21.867Z,59.49
2023-06-10T04:33:49.116Z,59.43
2023-06-10T04:36:15.934Z,59.58
2023-06-10T04:38:42.708Z,58.80
2023-06-10T04:41:09.380Z,56.51
2023-06-10T04:43:36.932Z,55.56
2023-06-10T04:46:03.853Z,55.43
2023-06-10T04:48:31.905Z,52.56
2023-06-10T04:50:59.863Z,50.01
2023-06-10T04:53:26.924Z,47.16
2023-06-10T04:55:53.480Z,43.94
2023-06-10T04:58:20.003Z,42.16
2023-06-10T05:00:46.566Z,41.07
2023-06-10T05:03:13.202Z,41.04
2023-06-10T05:05:39.760Z,40.12
2023-06-10T05:08:08.682Z,38.94
2023-06-10T05:10:36.036Z,39.23
2023-06-10T05:13:02.689Z,38.13
2023-06-10T05:15:29.140Z,38.07
2023-06-10T05:17:58.430Z,38.95
2023-06-10T05:20:26.252Z,37.89
2023-06-10T05:22:53.014Z,37.88
2023-06-10T05:25:20.512Z,37.46
2023-06-10T05:27:47.046Z,37.22
2023-06-10T05:30:13.733Z,36.40
2023-06-10T05:32:40.316Z,36.80
2023-06-10T05:35:07.726Z,37.44
2023-06-10T05:37:36.229Z,37.23
2023-06-10T05:40:02.888Z,37.29
2023-06-10T05:42:29.416Z,37.75
2023-06-10T05:44:55.874Z,38.05
2023-06-10T05:47:22.498Z,38.60
2023-06-10T05:49:50.949Z,38.38
2023-06-10T05:52:17.613Z,38.89
2023-06-10T05:54:44.109Z,39.14
2023-06-10T05:57:11.334Z,39.38
2023-06-10T05:59:37.866Z,40.23
2023-06-10T06:02:04.819Z,39.70
2023-06-10T06:04:31.482Z,40.83
2023-06-10T06:06:57.990Z,40.74
2023-06-10T06:09:24.518Z,41.09
2023-06-10T06:11:51.138Z,41.58
2023-06-10T06:14:17.730Z,41.36
2023-06-10T06:16:44.202Z,40.69
2023-06-10T06:19:12.173Z,41.92
2023-06-10T06:21:38.666Z,42.34
2023-06-10T06:24:05.823Z,41.12
2023-06-10T06:26:32.393Z,42.27
2023-06-10T06:28:58.951Z,42.88
2023-06-10T06:31:25.521Z,42.92
2023-06-10T06:33:52.030Z,42.30
2023-06-10T06:36:18.488Z,42.31
2023-06-10T06:38:44.954Z,42.45
2023-06-10T06:41:11.511Z,42.33
2023-06-10T06:43:38.074Z,42.14
2023-06-10T06:46:23.517Z,42.70
2023-06-10T06:48:50.173Z,42.62
2023-06-10T06:51:16.794Z,42.41
2023-06-10T06:53:45.834Z,42.04
2023-06-10T06:56:13.255Z,41.04
2023-06-10T06:58:39.882Z,42.90
2023-06-10T07:01:06.577Z,41.91
2023-06-10T07:03:33.199Z,41.51
2023-06-10T07:05:59.778Z,41.36
2023-06-10T07:08:26.342Z,41.63
2023-06-10T07:10:52.936Z,40.88
2023-06-10T07:13:19.683Z,41.13
2023-06-10T07:15:46.261Z,40.87
2023-06-10T07:18:12.750Z,41.31
2023-06-10T07:20:39.280Z,41.09
2023-06-10T07:23:05.734Z,41.00
2023-06-10T07:25:32.201Z,41.06
2023-06-10T07:27:58.651Z,40.42
2023-06-10T07:30:25.476Z,40.07
2023-06-10T07:32:52.952Z,40.55
2023-06-10T07:35:19.816Z,39.29
2023-06-10T07:37:46.711Z,38.91
2023-06-10T07:40:14.566Z,38.62
2023-06-10T07:42:41.083Z,38.79
2023-06-10T07:45:08.351Z,38.55
2023-06-10T07:47:35.689Z,40.05
2023-06-10T07:50:02.670Z,38.63
2023-06-10T07:52:29.764Z,37.88
2023-06-10T07:54:56.350Z,37.16
2023-06-10T07:57:22.950Z,38.15
2023-06-10T07:59:49.977Z,37.74
2023-06-10T08:02:16.438Z,36.96
2023-06-10T08:04:42.927Z,37.19
2023-06-10T08:07:09.410Z,36.53
2023-06-10T08:09:35.922Z,37.21
2023-06-10T08:12:03.306Z,36.76
2023-06-10T08:14:30.298Z,36.69
2023-06-10T08:16:56.990Z,35.77
2023-06-10T08:19:23.541Z,36.01
2023-06-10T08:21:50.037Z,35.59
2023-06-10T08:24:18.984Z,35.03
2023-06-10T08:26:45.856Z,36.23
2023-06-10T08:29:13.657Z,34.87
2023-06-10T08:31:44.371Z,35.42
2023-06-10T08:34:10.938Z,35.82
2023-06-10T08:36:38.013Z,34.50
2023-06-10T08:39:04.698Z,33.93
2023-06-10T08:41:36.694Z,33.72
2023-06-10T08:44:10.826Z,33.81
2023-06-10T08:46:38.292Z,33.22
2023-06-10T08:49:08.688Z,33.79
2023-06-10T08:51:37.515Z,34.23
2023-06-10T08:54:16.444Z,33.61
2023-06-10T08:56:44.271Z,32.84
2023-06-10T08:59:11.909Z,32.39
2023-06-10T09:01:39.425Z,32.92
2023-06-10T09:04:07.024Z,33.50
2023-06-10T09:06:34.803Z,32.13
2023-06-10T09:09:03.779Z,31.75
2023-06-10T09:11:32.935Z,31.10
2023-06-10T09:13:59.538Z,31.30
2023-06-10T09:16:26.632Z,31.70
2023-06-10T09:18:56.158Z,31.07
2023-06-10T09:21:24.141Z,30.01
2023-06-10T09:23:51.153Z,29.71
2023-06-10T09:26:18.360Z,29.74
2023-06-10T09:28:51.174Z,30.58
2023-06-10T09:31:19.668Z,30.40
2023-06-10T09:33:46.567Z,29.05
2023-06-10T09:36:22.559Z,30.64
2023-06-10T09:38:51.746Z,29.67
2023-06-10T09:41:18.423Z,29.05
2023-06-10T09:43:47.426Z,28.95
2023-06-10T09:46:18.721Z,28.64
2023-06-10T09:48:47.649Z,29.04
2023-06-10T09:51:15.570Z,27.60
2023-06-10T09:53:42.354Z,28.96
2023-06-10T09:56:10.957Z,28.19
2023-06-10T09:58:44.321Z,28.17
2023-06-10T10:01:14.053Z,28.19
2023-06-10T10:03:47.956Z,28.30
2023-06-10T10:06:16.463Z,26.86
2023-06-10T10:08:44.365Z,27.36
2023-06-10T10:11:11.876Z,26.30
2023-06-10T10:13:39.097Z,26.82
2023-06-10T10:16:12.716Z,27.57
2023-06-10T10:18:42.703Z,27.12
2023-06-10T10:21:14.131Z,26.39
2023-06-10T10:24:13.026Z,26.98
2023-06-10T10:26:40.639Z,25.97
2023-06-10T10:29:24.964Z,25.27
2023-06-10T10:31:54.862Z,24.78
2023-06-10T10:34:28.905Z,24.94
2023-06-10T10:36:55.657Z,26.25
2023-06-10T10:39:22.609Z,25.55
2023-06-10T10:41:50.901Z,25.13
2023-06-10T10:44:17.976Z,24.12
2023-06-10T10:46:49.444Z,25.57
2023-06-10T10:49:16.887Z,24.06
2023-06-10T10:51:59.854Z,24.12
2023-06-10T10:54:34.418Z,23.30
2023-06-10T10:57:10.009Z,22.99
2023-06-10T10:59:57.194Z,23.32
2023-06-10T11:02:36.661Z,22.97
2023-06-10T11:05:05.362Z,22.69
2023-06-10T11:07:36.134Z,22.35
2023-06-10T11:10:11.167Z,22.72
2023-06-10T11:12:46.646Z,22.93
2023-06-10T11:15:14.502Z,22.73
2023-06-10T11:18:14.981Z,23.17
2023-06-10T11:20:50.468Z,23.25
2023-06-10T11:23:43.574Z,23.07
2023-06-10T11:26:16.766Z,22.75
2023-06-10T11:29:04.775Z,22.96
2023-06-10T11:31:33.863Z,22.92
2023-06-10T11:34:04.267Z,22.56
2023-06-10T11:36:38.922Z,22.51
2023-06-10T11:39:07.558Z,22.67
2023-06-10T11:41:35.117Z,22.87
2023-06-10T11:44:08.706Z,22.23
2023-06-10T11:46:36.125Z,22.11
2023-06-10T11:49:03.657Z,22.40
2023-06-10T11:51:36.834Z,23.21
2023-06-10T11:54:04.296Z,22.31
2023-06-10T11:56:32.308Z,21.82
2023-06-10T11:59:05.467Z,22.13
2023-06-10T12:01:34.200Z,21.68
2023-06-10T12:04:08.958Z,22.44
2023-06-10T12:09:28.467Z,21.56
2023-06-10T12:12:01.469Z,21.55
2023-06-10T12:14:54.769Z,22.13
2023-06-10T12:17:23.314Z,21.46
2023-06-10T12:19:50.846Z,21.55
2023-06-10T12:22:17.601Z,22.01
2023-06-10T12:24:46.178Z,21.35
2023-06-10T12:27:13.612Z,22.07
2023-06-10T12:29:40.284Z,21.21
2023-06-10T12:32:08.485Z,21.43
2023-06-10T12:34:40.321Z,22.45
2023-06-10T12:37:14.507Z,21.64
2023-06-10T12:39:42.247Z,22.03
2023-06-10T12:42:10.698Z,21.49
2023-06-10T12:44:41.940Z,21.42
2023-06-10T12:47:15.153Z,20.92
2023-06-10T12:49:41.709Z,21.66
2023-06-10T12:52:08.489Z,21.98
2023-06-10T12:54:35.672Z,21.92
2023-06-10T12:57:02.589Z,22.04
2023-06-10T12:59:29.580Z,21.47
2023-06-10T13:01:56.337Z,21.88
2023-06-10T13:04:22.972Z,22.80
2023-06-10T13:06:50.098Z,22.42
2023-06-10T13:09:17.102Z,22.60
2023-06-10T13:11:43.777Z,22.30
2023-06-10T13:14:11.583Z,22.32
2023-06-10T13:16:39.291Z,23.82
2023-06-10T13:19:07.048Z,22.91
2023-06-10T13:21:35.131Z,22.21
2023-06-10T13:24:02.019Z,21.81
2023-06-10T13:26:28.668Z,22.46
2023-06-10T13:28:55.322Z,22.30
2023-06-10T13:31:22.322Z,21.82
2023-06-10T13:33:49.150Z,23.16
2023-06-10T13:36:15.884Z,22.46
2023-06-10T13:38:42.567Z,23.08
2023-06-10T13:41:09.215Z,22.95
2023-06-10T13:43:36.495Z,23.59
2023-06-10T13:46:03.132Z,22.56
2023-06-10T13:48:29.703Z,22.26
2023-06-10T13:50:56.251Z,22.48
2023-06-10T13:53:22.724Z,22.45
2023-06-10T13:55:49.193Z,22.49
2023-06-10T13:58:15.788Z,22.95
2023-06-10T14:00:42.288Z,22.51
2023-06-10T14:03:08.993Z,22.51
2023-06-10T14:05:35.836Z,22.85
2023-06-10T14:08:02.390Z,23.08
2023-06-10T14:10:28.842Z,23.14
2023-06-10T14:12:55.300Z,23.61
2023-06-10T14:15:21.831Z,22.56
2023-06-10T14:17:48.557Z,22.72
2023-06-10T14:20:15.418Z,22.81
2023-06-10T14:22:42.352Z,22.59
2023-06-10T14:25:09.653Z,22.20
2023-06-10T14:27:36.393Z,23.20
2023-06-10T14:30:04.002Z,22.82
2023-06-10T14:32:30.663Z,23.24
2023-06-10T14:34:57.392Z,23.34
2023-06-10T14:37:24.147Z,23.62
2023-06-10T14:39:50.705Z,23.35
2023-06-10T14:42:17.211Z,22.75
2023-06-10T14:44:43.730Z,23.18
2023-06-10T14:47:10.428Z,23.13
2023-06-10T14:49:36.934Z,23.50
2023-06-10T14:52:03.660Z,23.49
2023-06-10T14:54:30.133Z,23.52
2023-06-10T14:56:56.675Z,23.87
2023-06-10T14:59:23.144Z,23.27
2023-06-10T15:01:49.889Z,23.41
2023-06-10T15:04:16.537Z,23.76
2023-06-10T15:06:44.341Z,24.22
2023-06-10T15:09:11.055Z,23.67
2023-06-10T15:11:38.995Z,23.68
2023-06-10T15:14:05.754Z,23.94
2023-06-10T15:16:32.398Z,23.68
2023-06-10T15:18:58.994Z,23.92
2023-06-10T15:21:25.492Z,23.27
2023-06-10T15:23:52.442Z,23.97
2023-06-10T15:26:19.044Z,24.51
2023-06-10T15:28:45.538Z,24.17
2023-06-10T15:31:12.100Z,24.32
2023-06-10T15:33:38.637Z,24.34
2023-06-10T15:36:06.922Z,24.83
2023-06-10T15:38:33.551Z,24.77
2023-06-10T15:41:00.080Z,24.78
2023-06-10T15:43:26.601Z,24.39
2023-06-10T15:45:53.172Z,24.21
2023-06-10T15:48:19.695Z,23.96
2023-06-10T15:50:46.274Z,24.80
2023-06-10T15:53:12.816Z,25.21
2023-06-10T15:55:39.284Z,24.21
2023-06-10T15:58:06.018Z,24.42
2023-06-10T16:00:32.801Z,24.49
2023-06-10T16:02:59.677Z,24.73
2023-06-10T16:05:26.232Z,24.58
2023-06-10T16:07:52.739Z,24.56
2023-06-10T16:10:19.438Z,24.40
2023-06-10T16:12:46.370Z,24.36
2023-06-10T16:15:13.070Z,24.58
2023-06-10T16:17:39.599Z,24.86
2023-06-10T16:20:07.639Z,24.50
2023-06-10T16:22:34.166Z,24.84
2023-06-10T16:25:00.785Z,24.47
2023-06-10T16:27:27.327Z,24.54
2023-06-10T16:29:54.324Z,24.78
2023-06-10T16:32:20.997Z,25.08
2023-06-10T16:34:47.869Z,24.91
2023-06-10T16:37:14.373Z,24.83
2023-06-10T16:39:40.938Z,25.60
2023-06-10T16:42:07.557Z,25.02
2023-06-10T16:44:34.308Z,24.43
2023-06-10T16:47:00.913Z,23.78
2023-06-10T16:49:27.489Z,23.85
2023-06-10T16:51:53.956Z,24.41
2023-06-10T16:54:20.475Z,24.17
2023-06-10T16:56:46.971Z,24.48
2023-06-10T16:59:13.728Z,24.78
2023-06-10T17:01:40.301Z,24.94
2023-06-10T17:04:06.776Z,25.14
2023-06-10T17:06:33.229Z,25.18
2023-06-10T17:08:59.746Z,25.26
2023-06-10T17:11:26.434Z,25.18
2023-06-10T17:13:53.049Z,24.90
2023-06-10T17:16:19.613Z,25.26
2023-06-10T17:18:46.253Z,25.28
2023-06-10T17:21:12.788Z,26.04
2023-06-10T17:23:39.362Z,25.72
2023-06-10T17:26:06.015Z,26.36
2023-06-10T17:28:32.508Z,26.31
2023-06-10T17:30:58.954Z,26.34
2023-06-10T17:33:25.512Z,27.03
2023-06-10T17:35:52.385Z,25.45
2023-06-10T17:38:20.948Z,25.97
2023-06-10T17:40:47.810Z,26.10
2023-06-10T17:43:14.340Z,26.42
2023-06-10T17:45:40.914Z,26.49
2023-06-10T17:48:07.444Z,27.01
2023-06-10T17:50:34.007Z,27.38
2023-06-10T17:53:00.669Z,27.20
2023-06-10T17:55:27.163Z,26.82
2023-06-10T17:57:53.651Z,26.40
2023-06-10T18:00:20.731Z,26.83
2023-06-10T18:02:47.348Z,26.71
2023-06-10T18:05:14.178Z,26.68
2023-06-10T18:07:42.098Z,26.28
2023-06-10T18:10:09.671Z,26.54
2023-06-10T18:12:36.446Z,27.27
2023-06-10T18:15:04.228Z,27.46
2023-06-10T18:17:31.115Z,27.48
2023-06-10T18:19:57.691Z,27.52
2023-06-10T18:22:24.227Z,27.62
2023-06-10T18:24:50.860Z,27.93
2023-06-10T18:27:18.257Z,28.27
2023-06-10T18:29:44.781Z,27.95
2023-06-10T18:32:11.332Z,28.33
2023-06-10T18:34:37.942Z,28.44
2023-06-10T18:37:06.734Z,28.95
2023-06-10T18:39:34.426Z,28.81
2023-06-10T18:42:03.917Z,28.56
2023-06-10T18:44:30.777Z,28.26
2023-06-10T18:46:57.299Z,28.50
2023-06-10T18:49:23.882Z,28.93
2023-06-10T18:51:50.482Z,29.04
2023-06-10T18:54:18.423Z,29.51
2023-06-10T18:56:45.040Z,29.70
2023-06-10T18:59:11.627Z,29.70
2023-06-10T19:01:38.306Z,30.49
2023-06-10T19:04:05.392Z,30.33
2023-06-10T19:06:31.922Z,30.31
2023-06-10T19:08:58.870Z,30.52
2023-06-10T19:11:26.057Z,30.98
2023-06-10T19:13:52.596Z,30.61
2023-06-10T19:16:19.229Z,31.30
2023-06-10T19:18:45.798Z,30.76
2023-06-10T19:21:12.243Z,30.84
2023-06-10T19:23:38.968Z,30.85
2023-06-10T19:26:05.501Z,31.11
2023-06-10T19:28:32.219Z,30.93
2023-06-10T19:30:58.757Z,31.16
2023-06-10T19:33:25.377Z,30.97
2023-06-10T19:35:51.985Z,31.04
2023-06-10T19:38:19.687Z,30.91
2023-06-10T19:40:46.301Z,31.28
2023-06-10T19:43:13.417Z,31.42
2023-06-10T19:45:39.979Z,31.25
2023-06-10T19:48:08.714Z,31.34
2023-06-10T19:50:37.602Z,31.39
2023-06-10T19:53:04.337Z,31.39
2023-06-10T19:55:31.214Z,32.09
2023-06-10T19:57:57.723Z,31.39
2023-06-10T20:00:24.205Z,31.55
2023-06-10T20:02:50.856Z,31.71
2023-06-10T20:05:17.485Z,31.75
2023-06-10T20:07:44.130Z,31.75
2023-06-10T20:10:10.884Z,32.15
2023-06-10T20:12:37.372Z,32.25
2023-06-10T20:15:04.337Z,32.52
2023-06-10T20:17:30.928Z,33.39
2023-06-10T20:19:57.599Z,32.89
2023-06-10T20:22:24.180Z,33.09
2023-06-10T20:24:52.503Z,32.58
2023-06-10T20:27:19.098Z,32.56
2023-06-10T20:29:45.607Z,33.28
2023-06-10T20:32:12.200Z,33.26
2023-06-10T20:34:38.923Z,32.98
2023-06-10T20:37:05.702Z,33.08
2023-06-10T20:39:32.201Z,33.37
2023-06-10T20:41:58.870Z,33.22
2023-06-10T20:44:25.509Z,33.63
2023-06-10T20:46:52.139Z,34.20
2023-06-10T20:49:18.615Z,33.54
2023-06-10T20:51:45.127Z,34.18
2023-06-10T20:54:11.596Z,34.08
2023-06-10T20:56:38.084Z,34.68
2023-06-10T20:59:04.537Z,34.85
2023-06-10T21:01:31.196Z,35.68
2023-06-10T21:03:57.723Z,36.48
2023-06-10T21:06:25.171Z,36.43
2023-06-10T21:08:52.804Z,36.22
2023-06-10T21:11:19.393Z,36.48
2023-06-10T21:13:45.932Z,36.48
2023-06-10T21:16:12.443Z,37.91
2023-06-10T21:18:38.978Z,37.82
2023-06-10T21:21:05.992Z,37.76
2023-06-10T21:23:32.560Z,38.05
2023-06-10T21:25:59.169Z,37.82
2023-06-10T21:28:25.799Z,38.91
2023-06-10T21:30:52.455Z,39.61
2023-06-10T21:33:20.558Z,39.21
2023-06-10T21:35:47.082Z,40.23
2023-06-10T21:38:13.663Z,41.03
2023-06-10T21:40:40.309Z,40.96
2023-06-10T21:43:07.388Z,41.34
2023-06-10T21:45:33.965Z,41.55
2023-06-10T21:48:00.713Z,42.39
2023-06-10T21:50:27.228Z,42.19
2023-06-10T21:52:53.700Z,42.72
2023-06-10T21:55:20.357Z,42.32
2023-06-10T21:57:46.939Z,42.82
2023-06-10T22:00:14.375Z,43.05
2023-06-10T22:02:41.838Z,43.50
2023-06-10T22:05:09.014Z,43.81
2023-06-10T22:07:36.418Z,44.59
2023-06-10T22:10:04.437Z,45.06
2023-06-10T22:12:31.535Z,45.04
2023-06-10T22:14:58.066Z,45.30
2023-06-10T22:17:24.941Z,45.81
2023-06-10T22:19:51.514Z,46.05
2023-06-10T22:22:18.418Z,46.48
2023-06-10T22:24:50.631Z,46.10
2023-06-10T22:27:17.237Z,46.95
2023-06-10T22:29:43.680Z,47.10
2023-06-10T22:32:10.220Z,47.13
2023-06-10T22:34:36.847Z,47.37
2023-06-10T22:37:03.486Z,47.84
2023-06-10T22:39:30.583Z,48.04
2023-06-10T22:41:57.034Z,48.36
2023-06-10T22:44:23.551Z,48.22
2023-06-10T22:46:50.112Z,48.10
2023-06-10T22:49:17.742Z,48.58
2023-06-10T22:51:45.640Z,49.08
2023-06-10T22:54:14.963Z,49.56
2023-06-10T22:56:41.707Z,49.72
2023-06-10T22:59:08.167Z,49.32
2023-06-10T23:01:34.717Z,48.82
2023-06-10T23:04:01.356Z,48.83
2023-06-10T23:06:27.940Z,48.55
2023-06-10T23:08:54.562Z,48.61
2023-06-10T23:11:21.036Z,48.54
2023-06-10T23:13:47.587Z,49.07
2023-06-10T23:16:14.209Z,49.30
2023-06-10T23:18:41.273Z,50.08
2023-06-10T23:21:09.067Z,50.24
2023-06-10T23:23:37.857Z,50.64
2023-06-10T23:26:04.962Z,51.04
2023-06-10T23:28:31.566Z,51.16
2023-06-10T23:30:58.165Z,51.04
2023-06-10T23:33:25.063Z,51.72
2023-06-10T23:35:51.796Z,51.69
2023-06-10T23:38:18.351Z,51.80
2023-06-10T23:40:44.916Z,52.18
2023-06-10T23:43:14.560Z,53.28
2023-06-10T23:45:41.140Z,52.79
2023-06-10T23:48:07.727Z,54.01
2023-06-10T23:50:37.877Z,53.72
2023-06-10T23:53:06.488Z,53.94
2023-06-10T23:55:35.069Z,54.21
2023-06-10T23:58:02.486Z,54.53
